Time;durP1;ratioP1;P1;durP2;ratioP2;P2;SDS_P1;SDS_P2;PMS_P1;PMS_P2;Temp;Humidity;BMP_temperature;BMP_pressure;BME280_temperature;BME280_humidity;BME280_pressure;Samples;Min_cycle;Max_cycle;Signal;HPM_P1;HPM_P2
2022/11/18 00:01:33;;;;;;;31.93;18.20;;;;;;;4.85;100.00;96209.72;6217816;28;20305;-48
2022/11/18 00:04:35;;;;;;;27.80;16.97;;;;;;;4.85;100.00;96209.72;6218382;28;20737;-44
2022/11/18 00:07:37;;;;;;;26.80;18.00;;;;;;;4.85;100.00;96207.09;6214152;28;20247;-44
2022/11/18 00:10:39;;;;;;;31.53;18.53;;;;;;;4.84;100.00;96203.66;6219297;28;20252;-44
2022/11/18 00:17:04;;;;;;;27.87;17.77;;;;;;;4.81;100.00;96198.69;6213510;28;20378;-45
2022/11/18 00:20:06;;;;;;;23.90;16.43;;;;;;;4.77;100.00;96194.66;6218778;28;20234;-43
2022/11/18 00:23:08;;;;;;;32.10;18.87;;;;;;;4.78;100.00;96193.72;6216244;28;20240;-44
2022/11/18 00:26:13;;;;;;;27.77;19.00;;;;;;;4.78;100.00;96191.94;6216248;28;20612;-44
2022/11/18 00:29:16;;;;;;;26.20;18.37;;;;;;;4.77;100.00;96182.44;6217201;28;20317;-45
2022/11/18 00:32:18;;;;;;;25.67;17.33;;;;;;;4.74;100.00;96174.84;6217690;28;20242;-43
2022/11/18 00:35:20;;;;;;;26.47;17.50;;;;;;;4.75;100.00;96178.28;6214080;28;20647;-44
2022/11/18 00:38:24;;;;;;;27.67;18.07;;;;;;;4.75;100.00;96181.72;6216715;28;20330;-44
2022/11/18 00:42:49;;;;;;;30.43;18.93;;;;;;;4.76;100.00;96196.44;6215187;28;20242;-44
2022/11/18 00:44:48;;;;;;;26.67;17.83;;;;;;;4.72;100.00;96189.81;6217921;28;20234;-45
2022/11/18 00:47:50;;;;;;;30.00;19.53;;;;;;;4.73;100.00;96188.84;6217707;28;20392;-44
2022/11/18 00:50:55;;;;;;;24.20;18.17;;;;;;;4.74;100.00;96184.47;6217662;28;20727;-44
2022/11/18 00:53:57;;;;;;;23.43;17.00;;;;;;;4.75;100.00;96186.13;6214869;28;20235;-44
2022/11/18 00:56:59;;;;;;;27.50;18.03;;;;;;;4.77;100.00;96181.59;6218149;28;20226;-44
2022/11/18 01:00:01;;;;;;;23.87;16.73;;;;;;;4.78;100.00;96172.81;6192320;28;20317;-44
2022/11/18 01:03:03;;;;;;;26.13;17.47;;;;;;;4.77;100.00;96174.59;6221023;28;20221;-43
2022/11/18 01:06:06;;;;;;;27.30;18.27;;;;;;;4.76;100.00;96172.94;6213515;28;20756;-44
2022/11/18 01:09:08;;;;;;;21.67;15.97;;;;;;;4.73;100.00;96177.56;6206289;28;20708;-43
2022/11/18 01:15:41;;;;;;;22.03;15.03;;;;;;;4.71;100.00;96164.63;6213721;28;20283;-44
2022/11/18 01:18:43;;;;;;;22.07;15.57;;;;;;;4.70;100.00;96173.41;6211873;28;20641;-48
2022/11/18 01:21:46;;;;;;;17.90;13.77;;;;;;;4.71;100.00;96169.03;6216793;28;20244;-44
2022/11/18 01:24:48;;;;;;;22.03;15.77;;;;;;;4.68;100.00;96170.13;6215666;28;20241;-45
2022/11/18 01:27:50;;;;;;;21.33;14.23;;;;;;;4.67;100.00;96165.84;6217635;28;20253;-44
2022/11/18 01:30:52;;;;;;;19.30;14.40;;;;;;;4.64;100.00;96154.81;6216572;28;20237;-44
2022/11/18 01:33:55;;;;;;;21.20;14.60;;;;;;;4.64;100.00;96155.63;6214438;28;20323;-44
2022/11/18 01:36:57;;;;;;;24.80;17.37;;;;;;;4.61;100.00;96152.44;6218531;28;20533;-43
2022/11/18 01:39:59;;;;;;;24.87;17.23;;;;;;;4.56;100.00;96144.97;6213499;28;20249;-44
2022/11/18 01:43:02;;;;;;;24.07;18.10;;;;;;;4.54;100.00;96143.44;6216869;28;20231;-45
2022/11/18 01:46:04;;;;;;;34.97;19.93;;;;;;;4.46;100.00;96149.28;6214419;28;20240;-44
2022/11/18 01:49:13;;;;;;;29.70;18.40;;;;;;;4.40;100.00;96144.53;6214795;28;20237;-46
2022/11/18 01:52:15;;;;;;;28.10;18.73;;;;;;;4.39;100.00;96143.69;6215753;28;20240;-45
2022/11/18 01:55:30;;;;;;;26.17;18.20;;;;;;;4.43;100.00;96136.47;6220113;28;20241;-44
2022/11/18 01:58:40;;;;;;;23.47;16.37;;;;;;;4.47;100.00;96132.66;6213677;28;20229;-44
2022/11/18 02:01:42;;;;;;;26.03;16.60;;;;;;;4.49;100.00;96132.53;6223232;28;20230;-48
2022/11/18 02:04:48;;;;;;;27.17;17.03;;;;;;;4.52;100.00;96146.16;6221107;28;20225;-48
2022/11/18 02:07:51;;;;;;;30.53;19.23;;;;;;;4.54;100.00;96154.72;6222194;28;20291;-46
2022/11/18 02:10:53;;;;;;;27.03;16.90;;;;;;;4.53;100.00;96145.22;6217374;28;20240;-45
2022/11/18 02:13:58;;;;;;;26.07;17.07;;;;;;;4.54;100.00;96133.81;6220927;28;20224;-44
2022/11/18 02:17:09;;;;;;;27.27;17.47;;;;;;;4.56;100.00;96129.31;6221452;28;20233;-46
2022/11/18 02:20:21;;;;;;;26.97;16.17;;;;;;;4.57;100.00;96127.53;6218747;28;20598;-44
2022/11/18 02:23:52;;;;;;;23.97;14.73;;;;;;;4.59;100.00;96134.25;6216142;28;20353;-44
2022/11/18 02:27:12;;;;;;;22.53;14.63;;;;;;;4.58;100.00;96130.00;6218177;28;20236;-44
2022/11/18 02:30:16;;;;;;;24.00;15.17;;;;;;;4.59;100.00;96128.22;6215245;28;20240;-44
2022/11/18 02:33:39;;;;;;;23.93;15.17;;;;;;;4.58;100.00;96119.56;6215732;28;20264;-44
2022/11/18 02:36:58;;;;;;;22.00;14.47;;;;;;;4.54;100.00;96125.16;6220627;28;20237;-44
2022/11/18 02:40:24;;;;;;;23.00;15.20;;;;;;;4.54;100.00;96133.81;6218551;28;20242;-44
2022/11/18 02:43:31;;;;;;;25.70;16.00;;;;;;;4.58;100.00;96131.78;6216802;28;20238;-45
2022/11/18 02:46:37;;;;;;;28.07;16.20;;;;;;;4.60;100.00;96130.69;6215009;28;20294;-44
2022/11/18 02:49:53;;;;;;;22.80;14.50;;;;;;;4.60;100.00;96120.25;6219779;28;20311;-46
2022/11/18 02:53:02;;;;;;;28.00;15.53;;;;;;;4.61;100.00;96101.00;6216289;28;20246;-46
2022/11/18 02:56:06;;;;;;;18.03;12.30;;;;;;;4.63;100.00;96093.03;6218999;28;20713;-45
2022/11/18 02:59:08;;;;;;;20.23;13.60;;;;;;;4.62;100.00;96091.38;6219009;28;20240;-46
2022/11/18 03:02:18;;;;;;;26.17;15.83;;;;;;;4.65;100.00;96089.38;6221013;28;20323;-44
2022/11/18 03:05:38;;;;;;;26.60;16.13;;;;;;;4.65;100.00;96088.53;6216144;28;20233;-44
2022/11/18 03:09:04;;;;;;;26.37;15.57;;;;;;;4.66;100.00;96105.88;6215937;28;20377;-44
2022/11/18 03:12:42;;;;;;;22.73;13.70;;;;;;;4.65;100.00;96110.25;6219291;28;20242;-44
2022/11/18 03:16:08;;;;;;;22.90;14.07;;;;;;;4.63;100.00;96108.72;6214318;28;20235;-43
2022/11/18 03:19:24;;;;;;;27.47;15.03;;;;;;;4.61;100.00;96108.00;6217567;28;20226;-44
2022/11/18 03:22:43;;;;;;;23.73;14.47;;;;;;;4.60;100.00;96103.75;6217103;28;20246;-43
2022/11/18 03:26:11;;;;;;;23.73;14.00;;;;;;;4.60;100.00;96095.91;6218539;28;20269;-44
2022/11/18 03:29:35;;;;;;;25.93;15.57;;;;;;;4.61;100.00;96090.56;6216173;28;20261;-44
2022/11/18 03:32:42;;;;;;;24.97;15.57;;;;;;;4.64;100.00;96095.53;6217226;28;20626;-44
2022/11/18 03:35:48;;;;;;;25.50;15.13;;;;;;;4.66;100.00;96083.19;6219520;28;20728;-44
2022/11/18 03:38:57;;;;;;;22.40;14.60;;;;;;;4.67;100.00;96082.22;6220540;28;20256;-45
2022/11/18 03:42:24;;;;;;;27.77;17.07;;;;;;;4.66;100.00;96096.25;6217075;28;20235;-44
2022/11/18 03:45:52;;;;;;;19.97;14.60;;;;;;;4.60;100.00;96098.50;6216795;28;20317;-44
2022/11/18 03:48:57;;;;;;;24.33;15.97;;;;;;;4.63;100.00;96093.88;6219063;28;20232;-45
2022/11/18 03:52:10;;;;;;;23.07;15.13;;;;;;;4.64;100.00;96085.09;6209096;28;20239;-44
2022/11/18 03:55:17;;;;;;;21.07;14.80;;;;;;;4.67;100.00;96086.63;6217258;28;20244;-43
2022/11/18 03:58:30;;;;;;;24.13;16.00;;;;;;;4.68;100.00;96085.69;6219554;28;20331;-44
2022/11/18 04:01:44;;;;;;;21.83;14.50;;;;;;;4.69;100.00;96103.00;6221820;28;20222;-45
2022/11/18 04:04:49;;;;;;;21.53;13.93;;;;;;;4.70;100.00;96110.69;6214825;28;20242;-44
2022/11/18 04:07:58;;;;;;;19.03;14.07;;;;;;;4.70;100.00;96102.03;6216134;28;20234;-47
2022/11/18 04:14:54;;;;;;;20.07;14.23;;;;;;;4.73;100.00;96097.41;6214882;28;20350;-44
2022/11/18 04:17:57;;;;;;;19.70;13.10;;;;;;;4.75;100.00;96087.66;6219240;28;20258;-45
2022/11/18 04:20:59;;;;;;;18.67;13.90;;;;;;;4.75;100.00;96089.44;6216857;28;20735;-46
2022/11/18 04:24:01;;;;;;;19.03;13.60;;;;;;;4.73;100.00;96097.41;6215351;28;20586;-43
2022/11/18 04:27:04;;;;;;;19.73;14.90;;;;;;;4.74;100.00;96098.22;6219170;28;20218;-43
2022/11/18 04:30:07;;;;;;;20.17;14.33;;;;;;;4.73;100.00;96092.16;6216291;28;20265;-46
2022/11/18 04:33:09;;;;;;;24.27;15.07;;;;;;;4.73;100.00;96096.56;6213324;28;20647;-43
2022/11/18 04:36:11;;;;;;;22.33;14.60;;;;;;;4.72;100.00;96098.34;6218463;28;20229;-46
2022/11/18 04:39:13;;;;;;;18.77;12.90;;;;;;;4.73;100.00;96107.84;6218509;28;20227;-47
2022/11/18 04:42:16;;;;;;;21.43;14.50;;;;;;;4.74;100.00;96101.66;6213769;28;20822;-43
2022/11/18 04:45:18;;;;;;;21.53;15.03;;;;;;;4.73;100.00;96097.41;6218701;28;20275;-44
2022/11/18 04:48:20;;;;;;;17.20;11.83;;;;;;;4.69;100.00;96088.13;6217271;28;22388;-44
2022/11/18 04:51:22;;;;;;;20.23;13.93;;;;;;;4.72;100.00;96090.50;6219275;28;20316;-45
2022/11/18 04:54:25;;;;;;;19.77;13.77;;;;;;;4.74;100.00;96087.78;6216598;28;20237;-44
2022/11/18 04:57:27;;;;;;;17.70;12.70;;;;;;;4.75;100.00;96098.09;6218117;28;20304;-43
2022/11/18 05:00:29;;;;;;;20.90;13.70;;;;;;;4.76;100.00;96093.72;6215786;28;20225;-43
2022/11/18 05:03:32;;;;;;;19.97;12.87;;;;;;;4.77;100.00;96090.16;6217920;28;20643;-43
2022/11/18 05:06:34;;;;;;;22.97;14.63;;;;;;;4.78;100.00;96097.03;6218323;28;20327;-43
2022/11/18 05:09:36;;;;;;;17.77;12.83;;;;;;;4.79;100.00;96094.25;6209263;28;20305;-44
2022/11/18 05:12:47;;;;;;;19.23;12.93;;;;;;;4.78;100.00;96086.56;6215320;28;21038;-44
2022/11/18 05:15:49;;;;;;;17.70;12.50;;;;;;;4.77;100.00;96083.13;6208558;28;20954;-43
2022/11/18 05:18:51;;;;;;;17.60;12.97;;;;;;;4.78;100.00;96076.97;6211965;28;20661;-44
2022/11/18 05:21:54;;;;;;;18.00;13.63;;;;;;;4.78;100.00;96066.50;6216189;28;20235;-44
2022/11/18 05:24:56;;;;;;;22.50;15.10;;;;;;;4.80;100.00;96066.34;6215000;28;20267;-44
2022/11/18 05:27:58;;;;;;;21.20;14.83;;;;;;;4.79;100.00;96065.50;6214867;28;20310;-44
2022/11/18 05:31:09;;;;;;;20.33;13.83;;;;;;;4.80;100.00;96061.13;6217380;28;20241;-43
2022/11/18 05:34:11;;;;;;;18.50;13.47;;;;;;;4.80;100.00;96072.41;6219450;28;20242;-44
2022/11/18 05:37:13;;;;;;;18.63;13.33;;;;;;;4.80;100.00;96066.34;6217245;28;20611;-43
2022/11/18 05:40:16;;;;;;;21.43;14.73;;;;;;;4.80;100.00;96082.03;6215021;28;20263;-43
2022/11/18 05:43:18;;;;;;;18.90;13.90;;;;;;;4.77;100.00;96090.16;6214745;28;20290;-44
2022/11/18 05:46:20;;;;;;;25.57;16.20;;;;;;;4.75;100.00;96092.88;6217730;28;20226;-44
2022/11/18 05:49:22;;;;;;;25.00;17.17;;;;;;;4.73;100.00;96091.34;6213154;28;20236;-43
2022/11/18 05:52:25;;;;;;;20.90;14.97;;;;;;;4.70;100.00;96095.03;6213304;28;20237;-45
2022/11/18 05:55:49;;;;;;;17.90;13.27;;;;;;;4.72;100.00;96103.56;6214772;28;20267;-45
2022/11/18 05:58:51;;;;;;;19.70;14.00;;;;;;;4.72;100.00;96095.72;6203838;28;20295;-44
2022/11/18 06:02:01;;;;;;;25.37;16.30;;;;;;;4.74;100.00;96091.22;6217936;28;20285;-45
2022/11/18 06:05:04;;;;;;;20.97;14.07;;;;;;;4.75;100.00;96092.03;6211615;28;20253;-43
2022/11/18 06:08:09;;;;;;;24.13;16.53;;;;;;;4.75;100.00;96087.66;6216673;28;20233;-44
2022/11/18 06:11:15;;;;;;;21.27;14.87;;;;;;;4.78;100.00;96086.56;6215513;28;20225;-48
2022/11/18 06:14:29;;;;;;;21.80;14.07;;;;;;;4.80;100.00;96082.03;6211110;28;20314;-45
2022/11/18 06:17:39;;;;;;;22.63;15.03;;;;;;;4.81;100.00;96088.91;6214721;28;20233;-44
2022/11/18 06:20:41;;;;;;;23.40;15.00;;;;;;;4.77;100.00;96083.13;6214924;28;20256;-43
2022/11/18 06:23:44;;;;;;;21.80;14.37;;;;;;;4.74;100.00;96085.16;6213106;28;20274;-43
2022/11/18 06:26:48;;;;;;;20.47;15.00;;;;;;;4.76;100.00;96088.47;6213894;28;20265;-43
2022/11/18 06:29:50;;;;;;;19.87;13.57;;;;;;;4.75;100.00;96089.44;6216711;28;20239;-44
2022/11/18 06:32:52;;;;;;;20.33;14.33;;;;;;;4.78;100.00;96092.63;6216246;28;20308;-43
2022/11/18 06:35:54;;;;;;;18.83;13.27;;;;;;;4.83;100.00;96105.31;6215590;28;20230;-43
2022/11/18 06:39:02;;;;;;;21.77;15.17;;;;;;;4.85;100.00;96110.41;6219961;28;20240;-43
2022/11/18 06:42:04;;;;;;;23.13;13.40;;;;;;;4.80;100.00;96106.38;6220271;28;20598;-43
2022/11/18 06:45:06;;;;;;;19.20;12.27;;;;;;;4.81;100.00;96115.03;6219914;28;20291;-44
2022/11/18 06:48:08;;;;;;;18.67;11.60;;;;;;;4.82;100.00;96116.72;6218374;28;20566;-42
2022/11/18 06:51:11;;;;;;;18.27;11.80;;;;;;;4.86;100.00;96127.75;6221013;28;20231;-43
2022/11/18 06:54:13;;;;;;;19.17;11.07;;;;;;;4.89;100.00;96128.31;6218861;28;20275;-43
2022/11/18 06:57:15;;;;;;;17.77;10.80;;;;;;;4.94;100.00;96143.63;6218357;28;20229;-43
2022/11/18 07:00:17;;;;;;;17.93;10.90;;;;;;;4.95;100.00;96138.28;6219346;28;20286;-43
2022/11/18 07:03:20;;;;;;;16.63;9.77;;;;;;;4.99;100.00;96139.66;6216864;28;20229;-43
2022/11/18 07:06:24;;;;;;;21.23;12.10;;;;;;;5.03;100.00;96135.84;6219369;28;20237;-45
2022/11/18 07:09:26;;;;;;;19.53;11.37;;;;;;;5.04;100.00;96132.28;6218729;28;20779;-46
2022/11/18 07:12:29;;;;;;;16.30;9.50;;;;;;;5.04;100.00;96137.50;6219173;28;20241;-43
2022/11/18 07:15:33;;;;;;;16.13;10.03;;;;;;;5.07;100.00;96137.28;6219002;28;20234;-43
2022/11/18 07:18:37;;;;;;;16.17;10.63;;;;;;;5.11;100.00;96141.28;6218350;28;20268;-44
2022/11/18 07:21:39;;;;;;;15.60;10.13;;;;;;;5.13;100.00;96141.16;6215359;28;20248;-43
2022/11/18 07:24:42;;;;;;;16.67;10.73;;;;;;;5.16;100.00;96135.66;6218023;28;20241;-45
2022/11/18 07:27:44;;;;;;;18.33;11.60;;;;;;;5.18;100.00;96123.31;6219804;28;20318;-43
2022/11/18 07:30:47;;;;;;;20.67;11.77;;;;;;;5.22;100.00;96123.84;6219425;28;20245;-44
2022/11/18 07:33:52;;;;;;;14.73;9.77;;;;;;;5.23;100.00;96120.28;6220297;28;20245;-43
2022/11/18 07:36:54;;;;;;;16.00;10.83;;;;;;;5.27;100.00;96113.84;6217905;28;20327;-43
2022/11/18 07:39:58;;;;;;;16.60;10.40;;;;;;;5.31;100.00;96115.22;6217629;28;20599;-43
2022/11/18 07:43:00;;;;;;;16.50;10.63;;;;;;;5.34;100.00;96115.81;6219239;28;20330;-44
2022/11/18 07:46:10;;;;;;;15.77;10.93;;;;;;;5.39;100.00;96100.53;6215467;28;20242;-43
2022/11/18 07:49:12;;;;;;;15.33;9.37;;;;;;;5.40;100.00;96101.38;6218604;28;20305;-43
2022/11/18 07:52:14;;;;;;;14.00;10.33;;;;;;;5.42;100.00;96096.84;6217354;28;20265;-43
2022/11/18 07:55:16;;;;;;;14.97;10.70;;;;;;;5.47;100.00;96098.13;6213428;28;20239;-43
2022/11/18 07:58:18;;;;;;;16.33;11.43;;;;;;;5.53;100.00;96089.75;6220499;28;20244;-43
2022/11/18 08:01:23;;;;;;;17.30;11.53;;;;;;;5.60;100.00;96095.28;6219670;28;20271;-45
2022/11/18 08:04:26;;;;;;;16.13;10.73;;;;;;;5.63;100.00;96088.94;6213937;28;20230;-43
2022/11/18 08:07:28;;;;;;;18.00;12.03;;;;;;;5.67;100.00;96087.75;6218315;28;20241;-43
2022/11/18 08:10:30;;;;;;;18.20;11.07;;;;;;;5.65;100.00;96089.66;6214989;28;20245;-43
2022/11/18 08:13:33;;;;;;;17.10;11.43;;;;;;;5.68;100.00;96086.78;6218561;28;20238;-44
2022/11/18 08:16:35;;;;;;;14.40;10.30;;;;;;;5.70;100.00;96088.28;6217543;28;20242;-44
2022/11/18 08:19:37;;;;;;;16.40;11.47;;;;;;;5.70;100.00;96093.53;6215322;28;20260;-45
2022/11/18 08:22:39;;;;;;;17.03;11.67;;;;;;;5.73;100.00;96095.88;6215610;28;20235;-43
2022/11/18 08:25:43;;;;;;;16.47;11.30;;;;;;;5.80;100.00;96099.63;6214806;28;20246;-43
2022/11/18 08:28:46;;;;;;;16.60;11.27;;;;;;;5.90;100.00;96103.13;6216758;28;20246;-43
2022/11/18 08:31:49;;;;;;;17.30;11.03;;;;;;;5.97;100.00;96098.22;6212719;28;20540;-44
2022/11/18 08:34:51;;;;;;;15.27;10.73;;;;;;;6.02;100.00;96098.63;6216270;28;20642;-43
2022/11/18 08:37:53;;;;;;;15.97;11.20;;;;;;;6.02;100.00;96095.16;6218348;28;20246;-44
2022/11/18 08:40:55;;;;;;;17.37;12.33;;;;;;;5.98;100.00;96092.00;6216712;28;20234;-42
2022/11/18 08:43:57;;;;;;;14.17;10.93;;;;;;;5.99;100.00;96098.06;6223340;28;20237;-44
2022/11/18 08:47:00;;;;;;;18.60;12.10;;;;;;;5.99;100.00;96095.47;6220911;28;20607;-43
2022/11/18 08:50:11;;;;;;;15.60;10.93;;;;;;;6.04;100.00;96082.78;6221558;28;20243;-43
2022/11/18 08:53:14;;;;;;;16.27;11.80;;;;;;;6.09;100.00;96086.63;6215286;28;20602;-43
2022/11/18 08:56:21;;;;;;;16.50;11.40;;;;;;;6.16;100.00;96086.94;6213182;28;20254;-44
2022/11/18 08:59:23;;;;;;;15.90;10.50;;;;;;;6.16;100.00;96086.94;6208788;28;20265;-43
2022/11/18 09:02:26;;;;;;;14.67;10.93;;;;;;;6.17;100.00;96099.06;6217421;28;20235;-44
2022/11/18 09:05:28;;;;;;;13.73;10.47;;;;;;;6.12;100.00;96098.63;6216885;28;20241;-43
2022/11/18 09:08:30;;;;;;;13.63;10.00;;;;;;;6.04;100.00;96099.31;6215313;28;20236;-43
2022/11/18 09:11:33;;;;;;;14.27;9.30;;;;;;;6.01;100.00;96098.75;6218892;28;20284;-43
2022/11/18 09:14:35;;;;;;;12.37;9.33;;;;;;;6.03;100.00;96087.19;6215306;28;20297;-44
2022/11/18 09:17:57;;;;;;;11.83;8.83;;;;;;;6.09;100.00;96084.00;6213927;28;20833;-43
2022/11/18 09:21:03;;;;;;;10.27;8.00;;;;;;;6.16;100.00;96094.81;6216633;28;20580;-43
2022/11/18 09:24:06;;;;;;;11.47;8.93;;;;;;;6.18;100.00;96079.78;6208421;28;20226;-43
2022/11/18 09:27:08;;;;;;;10.90;8.57;;;;;;;6.20;100.00;96083.06;6217400;28;20459;-45
2022/11/18 09:30:17;;;;;;;14.40;10.10;;;;;;;6.20;100.00;96081.28;6209803;28;20667;-43
2022/11/18 09:33:21;;;;;;;12.80;9.53;;;;;;;6.23;100.00;96088.88;6212347;28;20243;-43
2022/11/18 09:36:25;;;;;;;12.63;9.47;;;;;;;6.28;100.00;96091.94;6211892;28;20237;-42
2022/11/18 09:39:27;;;;;;;11.37;8.73;;;;;;;6.35;100.00;96092.22;6215755;28;20263;-42
2022/11/18 09:43:05;;;;;;;9.70;7.60;;;;;;;6.46;100.00;96093.88;6217154;28;20238;-42
2022/11/18 09:46:43;;;;;;;7.97;6.77;;;;;;;6.57;100.00;96076.22;6212553;28;20678;-43
2022/11/18 09:49:46;;;;;;;10.50;6.43;;;;;;;6.71;100.00;96076.75;6212162;28;20243;-44
2022/11/18 09:53:00;;;;;;;9.00;6.43;;;;;;;6.86;100.00;96086.69;6216756;28;20237;-43
2022/11/18 09:56:02;;;;;;;6.03;5.20;;;;;;;7.01;100.00;96066.94;6210718;28;20257;-43
2022/11/18 09:59:04;;;;;;;5.00;4.37;;;;;;;7.13;100.00;96066.78;6213616;28;20235;-43
2022/11/18 10:02:28;;;;;;;4.03;3.50;;;;;;;7.26;100.00;96072.53;6216873;28;20231;-44
2022/11/18 10:05:42;;;;;;;3.93;3.40;;;;;;;7.34;100.00;96059.53;6213969;28;20235;-44
2022/11/18 10:08:54;;;;;;;5.03;3.23;;;;;;;7.49;100.00;96065.97;6214640;28;20234;-43
2022/11/18 10:12:21;;;;;;;3.73;2.60;;;;;;;7.55;100.00;96059.31;6217205;28;20277;-42
2022/11/18 10:15:38;;;;;;;2.33;2.00;;;;;;;7.54;96.83;96060.28;6216613;28;20251;-43
2022/11/18 10:18:58;;;;;;;2.07;1.87;;;;;;;7.69;96.86;96046.53;6214539;28;20231;-43
2022/11/18 10:22:13;;;;;;;2.10;1.63;;;;;;;7.80;97.64;96048.16;6219924;28;20229;-43
2022/11/18 10:25:24;;;;;;;1.50;1.40;;;;;;;7.84;96.89;96035.56;6218543;28;20259;-42
2022/11/18 10:28:29;;;;;;;1.57;1.30;;;;;;;7.81;95.12;96036.66;6216237;28;20696;-43
2022/11/18 10:31:31;;;;;;;1.10;1.00;;;;;;;7.82;94.93;96024.38;6219115;28;20251;-43
2022/11/18 10:34:44;;;;;;;1.30;1.20;;;;;;;7.85;95.04;96031.97;6220363;28;20825;-43
2022/11/18 10:38:02;;;;;;;1.10;1.00;;;;;;;7.85;94.36;96042.47;6213914;28;20239;-43
2022/11/18 10:41:16;;;;;;;1.20;1.10;;;;;;;7.94;95.21;96020.56;6220543;28;20236;-43
2022/11/18 10:44:33;;;;;;;1.10;1.00;;;;;;;7.88;92.97;96029.06;6218406;28;20237;-43
2022/11/18 10:47:35;;;;;;;1.00;0.90;;;;;;;7.82;90.77;96033.06;6219901;28;20245;-43
2022/11/18 10:50:40;;;;;;;0.70;0.70;;;;;;;7.78;90.81;96027.31;6221102;28;20235;-43
2022/11/18 10:53:42;;;;;;;0.97;0.80;;;;;;;7.83;88.81;96029.47;6214134;28;20240;-43
2022/11/18 10:57:19;;;;;;;1.00;0.90;;;;;;;7.94;89.45;96036.34;6218368;28;20227;-43
2022/11/18 11:00:50;;;;;;;0.50;0.50;;;;;;;8.05;89.14;96017.75;6216778;28;20316;-43
2022/11/18 11:04:11;;;;;;;0.60;0.60;;;;;;;8.12;89.78;96022.25;6240095;28;20278;-43
2022/11/18 11:07:20;;;;;;;0.67;0.50;;;;;;;8.20;89.96;96023.28;6240021;28;20269;-44
2022/11/18 11:10:23;;;;;;;0.30;0.30;;;;;;;8.11;87.12;96025.00;6240765;28;20227;-43
2022/11/18 11:13:29;;;;;;;0.30;0.30;;;;;;;8.12;87.96;96032.75;6233374;28;20238;-43
2022/11/18 11:16:45;;;;;;;0.40;0.40;;;;;;;8.21;88.34;96032.84;6234512;28;20242;-43
2022/11/18 11:20:03;;;;;;;0.50;0.50;;;;;;;8.28;88.04;96018.97;6235801;28;20656;-43
2022/11/18 11:23:12;;;;;;;0.40;0.30;;;;;;;8.31;87.62;96023.06;6202252;28;20697;-45
2022/11/18 11:26:40;;;;;;;1.50;0.30;;;;;;;8.36;86.72;96020.88;6213999;28;20239;-43
2022/11/18 11:30:05;;;;;;;0.20;0.20;;;;;;;8.42;86.92;96015.00;6236580;28;20243;-44
2022/11/18 11:33:17;;;;;;;0.30;0.30;;;;;;;8.43;86.58;96017.47;6240158;28;20231;-44
2022/11/18 11:36:32;;;;;;;0.20;0.20;;;;;;;8.36;86.45;96007.72;6239550;28;20240;-44
2022/11/18 11:40:06;;;;;;;1.17;0.20;;;;;;;8.24;85.53;96004.47;6239277;28;20301;-43
2022/11/18 11:43:14;;;;;;;0.30;0.20;;;;;;;8.21;86.39;96014.44;6215670;28;20259;-44
2022/11/18 11:46:21;;;;;;;0.53;0.30;;;;;;;8.20;87.37;96010.16;6204958;28;20632;-43
2022/11/18 11:49:34;;;;;;;0.83;0.30;;;;;;;8.17;87.06;96010.47;6218035;28;20258;-43
2022/11/18 11:52:59;;;;;;;0.37;0.30;;;;;;;8.15;87.30;96024.59;6217866;28;20240;-47
2022/11/18 11:56:17;;;;;;;0.60;0.30;;;;;;;8.01;88.34;96011.94;6215280;28;20233;-44
2022/11/18 11:59:51;;;;;;;0.50;0.30;;;;;;;8.04;88.99;96010.84;6217233;28;20323;-44
2022/11/18 12:03:18;;;;;;;0.20;0.20;;;;;;;8.05;88.49;96002.81;6217636;28;20232;-43
2022/11/18 12:06:20;;;;;;;0.40;0.40;;;;;;;8.08;88.50;96001.69;6192339;28;20243;-43
2022/11/18 12:09:31;;;;;;;0.30;0.30;;;;;;;8.11;88.68;96009.25;6213522;28;20251;-43
2022/11/18 12:12:42;;;;;;;0.20;0.20;;;;;;;8.06;88.34;96019.41;6217502;28;20615;-44
2022/11/18 12:15:59;;;;;;;2.20;0.50;;;;;;;8.13;89.23;96017.81;6214122;28;20310;-44
2022/11/18 12:19:16;;;;;;;0.37;0.30;;;;;;;8.12;89.00;96014.38;6216906;28;20248;-44
2022/11/18 12:22:19;;;;;;;0.27;0.27;;;;;;;8.10;90.18;96005.78;6216335;28;20320;-45
2022/11/18 12:25:48;;;;;;;0.23;0.23;;;;;;;8.09;89.17;96017.28;6216830;28;20230;-44
2022/11/18 12:28:51;;;;;;;0.20;0.20;;;;;;;8.10;89.54;96008.44;6212817;28;20235;-44
2022/11/18 12:31:57;;;;;;;0.27;0.27;;;;;;;8.09;90.49;96004.13;6210467;28;20682;-43
2022/11/18 12:34:59;;;;;;;1.00;0.37;;;;;;;8.10;90.16;96012.84;6215212;28;20777;-43
2022/11/18 12:38:03;;;;;;;0.20;0.20;;;;;;;8.07;89.00;96016.63;6217828;28;20742;-43
2022/11/18 12:45:35;;;;;;;0.23;0.23;;;;;;;8.27;89.54;96003.34;6213947;28;20267;-43
2022/11/18 12:48:41;;;;;;;1.20;0.40;;;;;;;8.27;89.42;96016.50;6214884;28;20259;-43
2022/11/18 12:51:43;;;;;;;0.30;0.30;;;;;;;8.28;89.17;96021.59;6212857;28;20556;-44
2022/11/18 12:54:48;;;;;;;0.30;0.30;;;;;;;8.25;88.75;96026.31;6214451;28;20766;-43
2022/11/18 12:57:50;;;;;;;0.23;0.17;;;;;;;8.16;89.55;96022.78;6217876;28;20274;-44
2022/11/18 13:01:07;;;;;;;0.47;0.47;;;;;;;8.19;89.55;96017.22;6215641;28;20726;-44
2022/11/18 13:04:16;;;;;;;1.60;0.40;;;;;;;8.19;90.07;96019.00;6213313;28;20628;-44
2022/11/18 13:10:42;;;;;;;1.13;0.30;;;;;;;8.03;90.24;96025.75;6213460;28;20232;-43
2022/11/18 13:13:45;;;;;;;0.63;0.40;;;;;;;7.94;89.85;96026.66;6209945;28;20560;-43
2022/11/18 13:20:32;;;;;;;0.70;0.47;;;;;;;7.87;90.42;96032.66;6212895;28;20243;-43
2022/11/18 13:23:52;;;;;;;0.40;0.40;;;;;;;7.80;90.99;96029.75;6214476;28;20255;-43
2022/11/18 13:27:01;;;;;;;0.53;0.53;;;;;;;7.73;91.30;96037.41;6214198;28;20759;-43
2022/11/18 13:30:09;;;;;;;1.07;0.63;;;;;;;7.69;91.78;96037.84;6217516;28;20232;-43
2022/11/18 13:33:11;;;;;;;1.90;0.60;;;;;;;7.65;92.55;96034.69;6216454;28;20595;-43
2022/11/18 13:36:17;;;;;;;1.37;0.50;;;;;;;7.64;92.58;96043.53;6217124;28;20689;-43
2022/11/18 13:39:28;;;;;;;0.60;0.60;;;;;;;7.64;92.91;96034.84;6212168;28;20294;-43
2022/11/18 13:42:31;;;;;;;0.67;0.63;;;;;;;7.61;94.50;96040.38;6216058;28;20231;-43
2022/11/18 13:45:34;;;;;;;1.43;0.80;;;;;;;7.60;94.65;96033.47;6214145;28;20227;-44
2022/11/18 13:48:43;;;;;;;1.23;0.60;;;;;;;7.59;94.87;96034.44;6220101;28;20236;-44
2022/11/18 13:51:45;;;;;;;0.90;0.83;;;;;;;7.58;95.27;96044.13;6221020;28;20238;-43
2022/11/18 13:54:50;;;;;;;1.97;0.80;;;;;;;7.56;95.31;96035.56;6217628;28;20616;-43
2022/11/18 13:58:05;;;;;;;1.30;0.93;;;;;;;7.55;95.58;96036.53;6220776;28;20231;-43
2022/11/18 14:01:13;;;;;;;1.10;1.00;;;;;;;7.56;96.30;96046.06;6223358;28;20228;-43
2022/11/18 14:04:20;;;;;;;1.63;0.90;;;;;;;7.55;95.68;96040.94;6222508;28;20359;-43
2022/11/18 14:07:30;;;;;;;2.37;1.00;;;;;;;7.54;95.27;96045.38;6219791;28;20313;-44
2022/11/18 14:10:43;;;;;;;1.20;1.10;;;;;;;7.49;95.58;96044.97;6221317;28;20671;-43
2022/11/18 14:13:53;;;;;;;1.10;1.00;;;;;;;7.47;96.02;96039.06;6220197;28;20236;-43
2022/11/18 14:17:17;;;;;;;0.77;0.77;;;;;;;7.44;96.41;96036.72;6216790;28;20245;-42
2022/11/18 14:20:20;;;;;;;1.87;0.97;;;;;;;7.39;96.67;96042.38;6218061;28;20740;-43
2022/11/18 14:23:32;;;;;;;0.70;0.70;;;;;;;7.37;97.71;96048.75;6217102;28;20224;-43
2022/11/18 14:26:37;;;;;;;1.40;1.00;;;;;;;7.35;97.89;96053.31;6219772;28;20276;-43
2022/11/18 14:29:49;;;;;;;1.40;1.00;;;;;;;7.30;98.50;96053.75;6219735;28;20365;-44
2022/11/18 14:33:05;;;;;;;1.83;1.63;;;;;;;7.24;98.62;96056.13;6217608;28;20275;-43
2022/11/18 14:36:15;;;;;;;1.80;1.70;;;;;;;7.18;99.04;96062.78;6219207;28;20250;-43
2022/11/18 14:39:30;;;;;;;2.30;1.77;;;;;;;7.06;99.43;96069.16;6222941;28;20218;-42
2022/11/18 14:42:32;;;;;;;3.23;2.80;;;;;;;6.83;98.61;96073.03;6218858;28;20354;-43
2022/11/18 14:45:36;;;;;;;3.17;2.70;;;;;;;6.61;98.60;96074.97;6221910;28;20369;-45
2022/11/18 14:48:38;;;;;;;3.57;3.17;;;;;;;6.39;99.24;96085.72;6218640;28;20324;-43
2022/11/18 14:51:41;;;;;;;3.23;2.77;;;;;;;6.03;97.55;96088.97;6218554;28;20762;-43
2022/11/18 14:54:44;;;;;;;2.60;2.40;;;;;;;5.94;98.94;96090.59;6216164;28;20236;-43
2022/11/18 14:57:46;;;;;;;2.93;2.60;;;;;;;5.80;98.77;96093.56;6217460;28;20220;-43